createdAt,value
2023-01-29T07:34:49.473Z,101247.16
2023-01-29T07:39:51.539Z,101245.16
2023-01-29T07:44:53.579Z,101233.16
2023-01-29T07:49:55.659Z,101215.97
2023-01-29T07:54:57.760Z,101201.59
2023-01-29T07:59:59.794Z,101218.16
2023-01-29T08:05:01.851Z,101230.66
2023-01-29T08:10:04.993Z,101236.69
2023-01-29T08:15:08.097Z,101230.50
2023-01-29T08:20:10.900Z,101227.31
2023-01-29T08:25:14.067Z,101231.84
2023-01-29T08:30:16.960Z,101251.72
2023-01-29T08:35:20.129Z,101229.66
2023-01-29T08:40:22.960Z,101256.38
2023-01-29T08:45:25.077Z,101245.53
2023-01-29T08:50:27.295Z,101256.38
2023-01-29T08:55:29.396Z,101269.56
2023-01-29T09:00:32.761Z,101282.59
2023-01-29T09:05:35.685Z,101285.59
2023-01-29T09:10:37.867Z,101280.94
2023-01-29T09:15:40.509Z,101300.12
2023-01-29T09:20:42.614Z,101287.41
2023-01-29T09:25:44.799Z,101298.94
2023-01-29T09:30:47.029Z,101273.75
2023-01-29T09:35:49.187Z,101287.09
2023-01-29T09:41:06.324Z,101290.78
2023-01-29T09:46:19.725Z,101301.31
2023-01-29T09:51:30.617Z,101314.38
2023-01-29T09:56:32.754Z,101292.16
2023-01-29T10:01:50.243Z,101306.31
2023-01-29T10:06:55.131Z,101310.16
2023-01-29T10:12:00.177Z,101300.97
2023-01-29T10:17:17.571Z,101315.69
2023-01-29T10:22:33.045Z,101315.69
2023-01-29T10:27:38.652Z,101308.81
2023-01-29T10:32:40.739Z,101307.69
2023-01-29T10:37:44.050Z,101306.50
2023-01-29T10:43:08.920Z,101304.81
2023-01-29T10:48:35.404Z,101305.34
2023-01-29T10:54:07.883Z,101299.31
2023-01-29T10:59:26.886Z,101292.00
2023-01-29T11:04:31.816Z,101282.09
2023-01-29T11:10:00.114Z,101266.25
2023-01-29T11:15:06.982Z,101273.56
2023-01-29T11:20:27.363Z,101265.56
2023-01-29T11:25:32.620Z,101258.22
2023-01-29T11:30:39.164Z,101227.31
2023-01-29T11:35:41.592Z,101220.78
2023-01-29T11:40:44.445Z,101217.31
2023-01-29T11:45:49.529Z,101220.44
2023-01-29T11:50:58.599Z,101195.41
2023-01-29T11:56:03.380Z,101184.22
2023-01-29T12:01:05.835Z,101190.19
2023-01-29T12:06:18.478Z,101179.00
2023-01-29T12:11:32.627Z,101196.22
2023-01-29T12:17:03.980Z,101186.69
2023-01-29T12:22:15.259Z,101189.69
2023-01-29T12:27:36.099Z,101166.09
2023-01-29T12:32:59.670Z,101188.28
2023-01-29T12:38:07.469Z,101174.44
2023-01-29T12:43:16.933Z,101174.38
2023-01-29T12:48:33.108Z,101166.72
2023-01-29T12:53:37.470Z,101172.53
2023-01-29T12:58:47.166Z,101158.41
2023-01-29T13:03:55.594Z,101151.38
2023-01-29T13:09:08.360Z,101162.03
2023-01-29T13:14:26.550Z,101158.31
2023-01-29T13:19:35.097Z,101140.09
2023-01-29T13:24:40.562Z,101129.13
2023-01-29T13:29:44.636Z,101121.34
2023-01-29T13:34:49.517Z,101119.62
2023-01-29T13:39:53.661Z,101112.09
2023-01-29T13:44:57.720Z,101124.63
2023-01-29T13:50:07.605Z,101118.87
2023-01-29T13:55:19.035Z,101139.13
2023-01-29T14:00:21.286Z,101128.09
2023-01-29T14:05:29.417Z,101121.69
2023-01-29T14:10:36.359Z,101129.75
2023-01-29T14:15:42.023Z,101122.22
2023-01-29T14:20:47.086Z,101134.84
2023-01-29T14:25:49.579Z,101141.75
2023-01-29T14:30:53.279Z,101142.97
2023-01-29T14:35:58.004Z,101141.16
2023-01-29T14:41:16.928Z,101125.88
2023-01-29T14:46:34.389Z,101121.63
2023-01-29T14:51:41.723Z,101144.50
2023-01-29T14:56:57.333Z,101121.00
2023-01-29T15:02:12.108Z,101146.88
2023-01-29T15:07:39.173Z,101126.00
2023-01-29T15:12:50.678Z,101139.00
2023-01-29T15:18:01.972Z,101143.81
2023-01-29T15:23:22.435Z,101115.72
2023-01-29T15:28:25.232Z,101106.19
2023-01-29T15:33:28.331Z,101119.19
2023-01-29T15:38:30.609Z,101120.12
2023-01-29T15:43:37.191Z,101117.34
2023-01-29T15:48:43.325Z,101116.56
2023-01-29T15:53:55.079Z,101116.00
2023-01-29T15:59:00.816Z,101129.84
2023-01-29T16:04:03.748Z,101120.75
2023-01-29T16:09:06.886Z,101134.97
2023-01-29T16:14:14.349Z,101127.97
2023-01-29T16:19:28.373Z,101142.03
2023-01-29T16:24:32.508Z,101134.53
2023-01-29T16:29:35.906Z,101134.84
2023-01-29T16:34:40.851Z,101154.25
2023-01-29T16:39:47.450Z,101143.84
2023-01-29T16:44:54.260Z,101169.44
2023-01-29T16:50:00.665Z,101171.12
2023-01-29T16:55:23.108Z,101161.78
2023-01-29T17:00:28.623Z,101173.25
2023-01-29T17:05:34.264Z,101174.34
2023-01-29T17:10:36.509Z,101165.06
2023-01-29T17:15:45.817Z,101156.84
2023-01-29T17:20:49.147Z,101164.38
2023-01-29T17:25:51.867Z,101159.69
2023-01-29T17:31:05.737Z,101158.16
2023-01-29T17:36:17.540Z,101136.25
2023-01-29T17:41:27.171Z,101139.81
2023-01-29T17:46:29.292Z,101122.72
2023-01-29T17:51:31.363Z,101114.59
2023-01-29T17:56:33.451Z,101132.47
2023-01-29T18:01:35.547Z,101098.88
2023-01-29T18:06:38.349Z,101106.31
2023-01-29T18:11:41.408Z,101121.34
2023-01-29T18:16:44.979Z,101097.66
2023-01-29T18:21:48.063Z,101100.16
2023-01-29T18:26:51.291Z,101096.12
2023-01-29T18:31:53.538Z,101106.78
2023-01-29T18:36:55.692Z,101104.19
2023-01-29T18:41:57.755Z,101103.81
2023-01-29T18:46:59.863Z,101090.09
2023-01-29T18:52:01.948Z,101104.53
2023-01-29T18:57:13.704Z,101099.66
2023-01-29T19:02:19.329Z,101085.59
2023-01-29T19:07:21.535Z,101089.00
2023-01-29T19:12:24.215Z,101114.56
2023-01-29T19:17:26.800Z,101095.16
2023-01-29T19:22:29.486Z,101093.75
2023-01-29T19:27:31.648Z,101076.03
2023-01-29T19:32:34.641Z,101097.22
2023-01-29T19:37:36.821Z,101079.12
2023-01-29T19:42:38.995Z,101076.09
2023-01-29T19:47:42.779Z,101077.00
2023-01-29T19:52:52.200Z,101065.06
2023-01-29T19:57:55.299Z,101065.59
2023-01-29T20:02:57.452Z,101082.09
2023-01-29T20:07:59.572Z,101076.66
2023-01-29T20:13:01.721Z,101070.81
2023-01-29T20:18:05.651Z,101087.84
2023-01-29T20:23:07.983Z,101083.66
2023-01-29T20:28:12.348Z,101060.63
2023-01-29T20:33:14.496Z,101060.50
2023-01-29T20:38:16.661Z,101053.19
2023-01-29T20:43:18.726Z,101059.50
2023-01-29T20:48:20.819Z,101038.00
2023-01-29T20:53:22.974Z,101057.94
2023-01-29T20:58:25.380Z,101058.50
2023-01-29T21:03:27.819Z,101073.91
2023-01-29T21:08:29.906Z,101060.25
